PILOTS ONLINE: 360    ATC ONLINE: 74

Location

IATA HYA
City Hyannis
Country  United States
Latitude 41° 40' 9" N
Longitude 70° 16' 49" W
Elevation 54 ft
Type Medium Airport

Weather

METAR
2014/07/10 21:56
KHYA 102156Z 14006KT 10SM CLR 23/16 A3008 RMK AO2 SLP186 T02330156
TAF
2014/07/10 18:36
TAF KHYA 101732Z 1018/1118 36005KT P6SM SCT200 
     FM102100 19005KT P6SM BKN100 
     FM110100 00000KT P6SM BKN090 
     FM111100 04004KT P6SM SCT090

Runways

06/24 5425 ft / 150 ft
15/33 5252 ft / 150 ft

Outbound flights

Inbound flights


Spotted incorrect airport information? Please login with your VATSIM ID.